createdAt,value
2022-10-07T00:00:57.862Z,83.07
2022-10-07T00:03:26.025Z,83.88
2022-10-07T00:06:10.862Z,84.55
2022-10-07T00:08:38.731Z,83.74
2022-10-07T00:11:18.066Z,84.54
2022-10-07T00:13:47.137Z,84.51
2022-10-07T00:16:17.455Z,83.79
2022-10-07T00:18:44.642Z,83.21
2022-10-07T00:21:14.219Z,82.06
2022-10-07T00:23:44.658Z,83.41
2022-10-07T00:26:13.823Z,83.45
2022-10-07T00:28:40.422Z,83.95
2022-10-07T00:31:10.079Z,83.90
2022-10-07T00:33:39.827Z,83.90
2022-10-07T00:36:23.761Z,85.17
2022-10-07T00:38:56.715Z,84.66
2022-10-07T00:41:30.241Z,84.58
2022-10-07T00:43:56.640Z,84.37
2022-10-07T00:46:40.076Z,85.39
2022-10-07T00:49:11.668Z,85.24
2022-10-07T00:51:39.078Z,85.68
2022-10-07T00:54:12.433Z,85.36
2022-10-07T00:56:41.125Z,85.39
2022-10-07T00:59:08.062Z,86.66
2022-10-07T01:01:35.004Z,87.63
2022-10-07T01:04:02.368Z,87.25
2022-10-07T01:06:28.766Z,88.49
2022-10-07T01:08:55.488Z,89.06
2022-10-07T01:11:28.967Z,88.75
2022-10-07T01:14:09.053Z,89.00
2022-10-07T01:17:20.799Z,86.54
2022-10-07T01:20:08.030Z,88.10
2022-10-07T01:22:47.630Z,87.91
2022-10-07T01:25:38.995Z,88.12
2022-10-07T01:28:10.905Z,89.13
2022-10-07T01:30:41.967Z,88.07
2022-10-07T01:33:18.934Z,88.93
2022-10-07T01:35:50.649Z,89.29
2022-10-07T01:38:22.238Z,89.35
2022-10-07T01:41:01.155Z,89.94
2022-10-07T01:43:27.610Z,89.56
2022-10-07T01:45:56.362Z,88.76
2022-10-07T01:48:22.811Z,88.04
2022-10-07T01:50:51.493Z,87.89
2022-10-07T01:53:50.081Z,88.33
2022-10-07T01:57:00.579Z,87.11
2022-10-07T01:59:53.304Z,88.13
2022-10-07T02:02:54.454Z,88.31
2022-10-07T02:05:35.586Z,85.43
2022-10-07T02:08:22.018Z,87.34
2022-10-07T02:10:54.244Z,88.13
2022-10-07T02:13:38.068Z,87.41
2022-10-07T02:16:14.779Z,87.65
2022-10-07T02:18:48.282Z,87.26
2022-10-07T02:21:16.423Z,88.07
2022-10-07T02:23:46.384Z,86.58
2022-10-07T02:26:17.264Z,87.86
2022-10-07T02:28:45.023Z,87.88
2022-10-07T02:31:17.783Z,86.80
2022-10-07T02:33:47.126Z,87.11
2022-10-07T02:36:22.350Z,87.24
2022-10-07T02:38:49.284Z,86.98
2022-10-07T02:41:35.541Z,87.44
2022-10-07T02:44:29.874Z,87.75
2022-10-07T02:47:18.824Z,88.24
2022-10-07T02:49:50.214Z,88.05
2022-10-07T02:52:19.850Z,88.21
2022-10-07T02:54:51.358Z,88.88
2022-10-07T02:57:19.901Z,88.46
2022-10-07T02:59:50.287Z,87.83
2022-10-07T03:02:27.955Z,87.20
2022-10-07T03:04:57.489Z,86.77
2022-10-07T03:07:25.026Z,87.12
2022-10-07T03:09:52.501Z,86.80
2022-10-07T03:12:19.703Z,86.93
2022-10-07T03:14:49.799Z,88.05
2022-10-07T03:17:17.930Z,88.29
2022-10-07T03:19:44.458Z,88.13
2022-10-07T03:22:11.077Z,87.63
2022-10-07T03:24:40.449Z,88.46
2022-10-07T03:27:09.032Z,88.23
2022-10-07T03:29:37.975Z,88.40
2022-10-07T03:32:05.406Z,88.36
2022-10-07T03:34:33.729Z,88.10
2022-10-07T03:37:00.751Z,88.70
2022-10-07T03:39:28.072Z,88.85
2022-10-07T03:41:54.583Z,87.75
2022-10-07T03:44:22.350Z,88.56
2022-10-07T03:46:51.226Z,89.09
2022-10-07T03:49:20.219Z,88.34
2022-10-07T03:51:47.590Z,88.48
2022-10-07T03:54:14.111Z,89.55
2022-10-07T03:56:40.521Z,89.59
2022-10-07T03:59:06.915Z,88.81
2022-10-07T04:01:35.933Z,90.09
2022-10-07T04:04:02.443Z,88.28
2022-10-07T04:06:34.207Z,89.73
2022-10-07T04:09:05.159Z,88.93
2022-10-07T04:11:31.601Z,88.74
2022-10-07T04:14:00.658Z,88.97
2022-10-07T04:16:27.959Z,89.51
2022-10-07T04:18:56.468Z,90.49
2022-10-07T04:21:24.343Z,90.35
2022-10-07T04:23:50.971Z,91.78
2022-10-07T04:26:17.542Z,94.79
2022-10-07T04:28:49.229Z,93.78
2022-10-07T04:31:18.976Z,92.34
2022-10-07T04:33:48.930Z,92.29
2022-10-07T04:36:21.200Z,90.98
2022-10-07T04:38:56.427Z,91.98
2022-10-07T04:41:27.031Z,91.54
2022-10-07T04:43:57.635Z,92.13
2022-10-07T04:46:25.750Z,94.31
2022-10-07T04:48:59.604Z,94.35
2022-10-07T04:51:27.559Z,95.83
2022-10-07T04:53:57.532Z,95.49
2022-10-07T04:56:36.752Z,94.85
2022-10-07T04:59:06.144Z,94.81
2022-10-07T05:01:33.222Z,95.04
2022-10-07T05:03:59.695Z,95.29
2022-10-07T05:06:27.112Z,96.09
2022-10-07T05:08:54.212Z,94.59
2022-10-07T05:11:21.595Z,97.68
2022-10-07T05:13:53.765Z,95.83
2022-10-07T05:16:21.250Z,96.53
2022-10-07T05:18:47.792Z,96.97
2022-10-07T05:21:15.662Z,96.24
2022-10-07T05:23:45.067Z,96.80
2022-10-07T05:26:16.031Z,96.68
2022-10-07T05:28:48.591Z,96.18
2022-10-07T05:31:18.499Z,96.96
2022-10-07T05:33:52.205Z,97.99
2022-10-07T05:36:21.438Z,98.55
2022-10-07T05:38:48.784Z,96.43
2022-10-07T05:41:15.380Z,98.37
2022-10-07T05:43:43.042Z,96.35
2022-10-07T05:46:15.315Z,97.43
2022-10-07T05:48:48.035Z,96.86
2022-10-07T05:51:15.071Z,94.56
2022-10-07T05:53:42.891Z,94.19
2022-10-07T05:56:12.557Z,93.85
2022-10-07T05:58:39.064Z,95.56
2022-10-07T06:01:14.197Z,97.37
2022-10-07T06:03:42.655Z,98.29
2022-10-07T06:06:10.282Z,99.26
2022-10-07T06:08:36.907Z,95.57
2022-10-07T06:11:25.501Z,94.66
2022-10-07T06:13:54.556Z,94.80
2022-10-07T06:16:21.462Z,96.69
2022-10-07T06:18:50.502Z,95.39
2022-10-07T06:21:19.114Z,93.38
2022-10-07T06:23:51.389Z,94.38
2022-10-07T06:26:20.818Z,94.44
2022-10-07T06:28:47.882Z,96.12
2022-10-07T06:31:22.391Z,96.45
2022-10-07T06:33:50.334Z,95.44
2022-10-07T06:36:17.335Z,96.25
2022-10-07T06:38:47.644Z,97.42
2022-10-07T06:41:16.043Z,96.14
2022-10-07T06:43:43.913Z,95.31
2022-10-07T06:46:19.411Z,95.10
2022-10-07T06:48:48.967Z,94.68
2022-10-07T06:51:19.868Z,93.94
2022-10-07T06:53:52.191Z,95.02
2022-10-07T06:56:19.554Z,94.59
2022-10-07T06:58:46.897Z,91.83
2022-10-07T07:01:15.425Z,92.22
2022-10-07T07:03:42.416Z,89.98
2022-10-07T07:06:11.152Z,89.80
2022-10-07T07:08:38.684Z,88.27
2022-10-07T07:11:31.110Z,87.03
2022-10-07T07:14:03.601Z,85.80
2022-10-07T07:16:30.621Z,85.49
2022-10-07T07:18:59.829Z,84.88
2022-10-07T07:21:28.765Z,84.71
2022-10-07T07:23:55.365Z,84.24
2022-10-07T07:26:22.050Z,83.14
2022-10-07T07:28:53.472Z,82.98
2022-10-07T07:31:21.003Z,83.33
2022-10-07T07:33:52.419Z,83.57
2022-10-07T07:36:23.157Z,80.61
2022-10-07T07:39:01.125Z,80.22
2022-10-07T07:41:30.911Z,80.94
2022-10-07T07:44:00.580Z,80.97
2022-10-07T07:46:32.494Z,80.51
2022-10-07T07:48:58.939Z,80.40
2022-10-07T07:51:26.043Z,82.00
2022-10-07T07:53:53.031Z,81.79
2022-10-07T07:56:20.160Z,82.53
2022-10-07T07:58:47.424Z,81.59
2022-10-07T08:01:18.578Z,81.45
2022-10-07T08:03:46.732Z,80.22
2022-10-07T08:06:16.498Z,79.76
2022-10-07T08:08:45.892Z,78.50
2022-10-07T08:11:16.667Z,77.19
2022-10-07T08:13:44.410Z,77.49
2022-10-07T08:16:24.865Z,76.35
2022-10-07T08:18:55.031Z,76.58
2022-10-07T08:21:26.083Z,77.02
2022-10-07T08:23:58.559Z,77.06
2022-10-07T08:26:30.910Z,76.35
2022-10-07T08:29:00.470Z,75.78
2022-10-07T08:31:29.194Z,75.66
2022-10-07T08:33:58.606Z,76.37
2022-10-07T08:36:27.247Z,75.68
2022-10-07T08:38:53.776Z,75.13
2022-10-07T08:41:51.233Z,74.41
2022-10-07T08:44:38.611Z,74.04
2022-10-07T08:47:16.197Z,74.14
2022-10-07T08:50:07.789Z,73.83
2022-10-07T08:52:55.564Z,73.70
2022-10-07T08:55:34.895Z,73.38
2022-10-07T08:58:18.463Z,72.63
2022-10-07T09:00:57.573Z,71.49
2022-10-07T09:03:32.644Z,71.45
2022-10-07T09:06:01.301Z,71.51
2022-10-07T09:08:37.329Z,70.79
2022-10-07T09:11:15.740Z,71.09
2022-10-07T09:14:21.008Z,71.69
2022-10-07T09:16:47.994Z,72.70
2022-10-07T09:19:28.596Z,69.91
2022-10-07T09:22:00.137Z,70.17
2022-10-07T09:24:28.995Z,70.54
2022-10-07T09:26:59.111Z,70.15
2022-10-07T09:29:27.815Z,69.46
2022-10-07T09:31:54.283Z,69.68
2022-10-07T09:34:25.056Z,69.02
2022-10-07T09:37:21.452Z,67.62
2022-10-07T09:39:51.057Z,66.46
2022-10-07T09:42:28.462Z,67.02
2022-10-07T09:44:57.399Z,66.57
2022-10-07T09:47:44.405Z,65.32
2022-10-07T09:50:36.970Z,64.80
2022-10-07T09:53:05.426Z,65.29
2022-10-07T09:55:40.918Z,64.18
2022-10-07T09:58:21.499Z,62.77
2022-10-07T10:00:49.983Z,63.01
2022-10-07T10:03:17.880Z,62.10
2022-10-07T10:05:54.914Z,62.26
2022-10-07T10:08:25.124Z,62.65
2022-10-07T10:10:55.994Z,62.50
2022-10-07T10:13:26.583Z,60.69
2022-10-07T10:15:53.057Z,60.92
2022-10-07T10:18:30.696Z,59.56
2022-10-07T10:21:15.819Z,58.04
2022-10-07T10:23:47.582Z,58.91
2022-10-07T10:26:33.621Z,57.81
2022-10-07T10:29:32.903Z,58.02
2022-10-07T10:32:02.073Z,58.01
2022-10-07T10:34:46.598Z,57.92
2022-10-07T10:37:21.462Z,55.38
2022-10-07T10:40:12.286Z,53.96
2022-10-07T10:42:51.472Z,54.66
2022-10-07T10:45:50.275Z,53.66
2022-10-07T10:48:30.982Z,53.26
2022-10-07T10:51:32.141Z,53.26
2022-10-07T10:54:38.667Z,54.51
2022-10-07T10:57:21.422Z,55.13
2022-10-07T11:00:07.794Z,53.70
2022-10-07T11:02:37.303Z,53.87
2022-10-07T11:05:24.552Z,53.37
2022-10-07T11:07:55.936Z,51.96
2022-10-07T11:10:35.355Z,54.14
2022-10-07T11:13:23.283Z,52.16
2022-10-07T11:16:14.796Z,50.99
2022-10-07T11:19:17.121Z,50.57
2022-10-07T11:21:47.284Z,51.30
2022-10-07T11:24:17.907Z,50.97
2022-10-07T11:26:50.914Z,50.34
2022-10-07T11:29:20.278Z,51.05
2022-10-07T11:31:58.092Z,50.51
2022-10-07T11:34:42.640Z,50.62
2022-10-07T11:37:23.047Z,51.24
2022-10-07T11:39:51.086Z,50.58
2022-10-07T11:42:22.746Z,49.84
2022-10-07T11:44:52.149Z,49.80
2022-10-07T11:47:24.002Z,48.96
2022-10-07T11:50:07.848Z,48.53
2022-10-07T11:52:39.195Z,49.17
2022-10-07T11:55:29.242Z,48.19
2022-10-07T11:57:58.628Z,48.10
2022-10-07T12:00:34.278Z,49.21
2022-10-07T12:03:33.663Z,46.93
2022-10-07T12:06:10.201Z,47.39
2022-10-07T12:08:38.763Z,46.92
2022-10-07T12:11:37.309Z,47.04
2022-10-07T12:14:34.004Z,46.89
2022-10-07T12:17:17.868Z,47.32
2022-10-07T12:19:45.121Z,47.55
2022-10-07T12:22:11.431Z,45.86
2022-10-07T12:24:38.351Z,46.05
2022-10-07T12:27:14.443Z,44.85
2022-10-07T12:29:50.815Z,44.80
2022-10-07T12:32:47.187Z,44.70
2022-10-07T12:35:34.889Z,44.80
2022-10-07T12:38:10.315Z,44.54
2022-10-07T12:40:38.303Z,44.64
2022-10-07T12:43:23.588Z,43.58
2022-10-07T12:45:50.282Z,44.62
2022-10-07T12:48:20.818Z,43.63
2022-10-07T12:50:50.207Z,43.93
2022-10-07T12:53:18.867Z,43.81
2022-10-07T12:55:49.930Z,43.99
2022-10-07T12:59:00.599Z,43.53
2022-10-07T13:01:47.237Z,43.33
2022-10-07T13:04:51.571Z,43.40
2022-10-07T13:08:06.729Z,42.92
2022-10-07T13:10:51.096Z,42.61
2022-10-07T13:13:30.682Z,42.78
2022-10-07T13:16:03.777Z,42.30
2022-10-07T13:19:06.343Z,42.58
2022-10-07T13:21:46.381Z,42.18
2022-10-07T13:24:16.672Z,41.39
2022-10-07T13:26:45.937Z,41.79
2022-10-07T13:29:33.269Z,40.96
2022-10-07T13:32:11.605Z,40.84
2022-10-07T13:34:38.372Z,41.26
2022-10-07T13:37:35.267Z,41.30
2022-10-07T13:40:21.981Z,41.14
2022-10-07T13:42:56.638Z,40.78
2022-10-07T13:45:23.363Z,41.61
2022-10-07T13:47:50.403Z,41.52
2022-10-07T13:50:21.174Z,41.65
2022-10-07T13:52:48.728Z,41.73
2022-10-07T13:55:35.456Z,41.02
2022-10-07T13:58:04.401Z,41.27
2022-10-07T14:00:40.307Z,41.85
2022-10-07T14:03:17.009Z,42.07
2022-10-07T14:05:51.883Z,41.19
2022-10-07T14:08:21.513Z,42.07
2022-10-07T14:10:57.004Z,41.99
2022-10-07T14:13:24.006Z,41.66
2022-10-07T14:15:54.101Z,41.47
2022-10-07T14:18:20.738Z,41.22
2022-10-07T14:20:52.297Z,41.18
2022-10-07T14:23:31.264Z,41.20
2022-10-07T14:26:04.113Z,41.57
2022-10-07T14:28:33.592Z,41.65
2022-10-07T14:31:25.877Z,41.12
2022-10-07T14:34:31.703Z,41.09
2022-10-07T14:37:08.407Z,41.42
2022-10-07T14:39:40.539Z,41.21
2022-10-07T14:42:28.623Z,42.23
2022-10-07T14:44:57.034Z,41.92
2022-10-07T14:47:27.879Z,42.20
2022-10-07T14:49:55.199Z,41.45
2022-10-07T14:52:43.722Z,41.56
2022-10-07T14:55:16.937Z,41.84
2022-10-07T14:57:44.131Z,42.42
2022-10-07T15:00:16.038Z,42.81
2022-10-07T15:02:42.482Z,42.98
2022-10-07T15:05:09.533Z,42.48
2022-10-07T15:07:36.181Z,43.11
2022-10-07T15:10:02.835Z,42.88
2022-10-07T15:12:30.798Z,43.47
2022-10-07T15:14:57.219Z,43.20
2022-10-07T15:17:23.712Z,43.94
2022-10-07T15:19:52.340Z,43.76
2022-10-07T15:22:18.902Z,44.14
2022-10-07T15:24:45.808Z,45.01
2022-10-07T15:27:12.486Z,44.57
2022-10-07T15:29:39.381Z,44.84
2022-10-07T15:32:08.280Z,44.80
2022-10-07T15:34:34.929Z,45.68
2022-10-07T15:37:01.546Z,45.66
2022-10-07T15:39:28.043Z,46.49
2022-10-07T15:41:55.311Z,46.87
2022-10-07T15:44:22.346Z,45.96
2022-10-07T15:46:52.780Z,46.07
2022-10-07T15:49:19.914Z,46.29
2022-10-07T15:51:47.017Z,46.89
2022-10-07T15:54:13.809Z,46.98
2022-10-07T15:56:40.824Z,46.97
2022-10-07T15:59:07.874Z,47.70
2022-10-07T16:01:34.668Z,48.40
2022-10-07T16:04:03.202Z,48.20
2022-10-07T16:06:32.825Z,47.72
2022-10-07T16:09:00.133Z,49.39
2022-10-07T16:11:28.428Z,51.12
2022-10-07T16:13:55.297Z,54.59
2022-10-07T16:16:24.430Z,56.09
2022-10-07T16:18:52.759Z,56.83
2022-10-07T16:21:22.845Z,57.68
2022-10-07T16:23:51.384Z,58.62
2022-10-07T16:26:21.180Z,59.16
2022-10-07T16:29:08.231Z,60.13
2022-10-07T16:31:37.423Z,60.09
2022-10-07T16:34:04.455Z,60.03
2022-10-07T16:36:30.936Z,60.68
2022-10-07T16:38:59.709Z,61.47
2022-10-07T16:41:26.423Z,61.17
2022-10-07T16:43:52.831Z,61.22
2022-10-07T16:46:20.748Z,61.89
2022-10-07T16:48:48.695Z,61.67
2022-10-07T16:51:17.978Z,62.09
2022-10-07T16:53:46.531Z,62.17
2022-10-07T16:56:13.757Z,61.20
2022-10-07T16:58:40.328Z,63.36
2022-10-07T17:01:09.708Z,64.64
2022-10-07T17:03:37.655Z,64.72
2022-10-07T17:06:04.385Z,64.53
2022-10-07T17:08:36.394Z,65.12
2022-10-07T17:11:06.501Z,66.16
2022-10-07T17:13:34.224Z,66.67
2022-10-07T17:16:01.126Z,66.01
2022-10-07T17:18:28.548Z,66.39
2022-10-07T17:20:59.273Z,66.59
2022-10-07T17:23:27.302Z,66.26
2022-10-07T17:25:54.605Z,66.55
2022-10-07T17:28:24.331Z,66.03
2022-10-07T17:30:54.412Z,65.55
2022-10-07T17:33:20.851Z,67.41
2022-10-07T17:35:47.235Z,68.24
2022-10-07T17:38:13.657Z,69.17
2022-10-07T17:40:40.033Z,69.53
2022-10-07T17:43:08.983Z,69.39
2022-10-07T17:45:36.758Z,69.24
2022-10-07T17:48:04.034Z,68.94
2022-10-07T17:50:31.310Z,70.48
2022-10-07T17:52:57.747Z,70.28
2022-10-07T17:55:24.192Z,70.14
2022-10-07T17:57:50.911Z,70.35
2022-10-07T18:00:17.582Z,70.63
2022-10-07T18:02:43.999Z,70.83
2022-10-07T18:05:10.399Z,71.86
2022-10-07T18:07:36.783Z,72.02
2022-10-07T18:10:03.181Z,72.36
2022-10-07T18:12:48.333Z,72.40
2022-10-07T18:15:20.583Z,72.60
2022-10-07T18:17:51.465Z,73.16
2022-10-07T18:20:19.694Z,72.91
2022-10-07T18:22:46.135Z,72.45
2022-10-07T18:25:12.595Z,73.10
2022-10-07T18:27:39.716Z,73.35
2022-10-07T18:30:07.439Z,73.30
2022-10-07T18:32:33.850Z,74.05
2022-10-07T18:35:00.233Z,74.30
2022-10-07T18:37:26.623Z,74.82
2022-10-07T18:39:53.050Z,75.38
2022-10-07T18:42:19.439Z,74.39
2022-10-07T18:44:46.008Z,74.53
2022-10-07T18:47:12.386Z,74.22
2022-10-07T18:49:38.764Z,74.39
2022-10-07T18:52:07.251Z,74.51
2022-10-07T18:54:33.715Z,74.54
2022-10-07T18:57:00.126Z,74.96
2022-10-07T18:59:26.513Z,74.68
2022-10-07T19:01:53.015Z,76.11
2022-10-07T19:04:20.168Z,76.87
2022-10-07T19:06:47.059Z,77.17
2022-10-07T19:09:19.478Z,78.40
2022-10-07T19:11:46.323Z,79.00
2022-10-07T19:14:13.647Z,78.58
2022-10-07T19:16:42.541Z,78.92
2022-10-07T19:19:18.234Z,78.81
2022-10-07T19:21:47.390Z,79.22
2022-10-07T19:24:15.321Z,79.11
2022-10-07T19:26:46.583Z,79.44
2022-10-07T19:29:14.561Z,79.55
2022-10-07T19:31:44.257Z,79.48
2022-10-07T19:34:14.951Z,79.19
2022-10-07T19:36:46.674Z,79.30
2022-10-07T19:39:18.627Z,79.59
2022-10-07T19:41:46.213Z,79.52
2022-10-07T19:44:13.774Z,79.70
2022-10-07T19:46:40.350Z,79.62
2022-10-07T19:49:07.782Z,80.12
2022-10-07T19:51:35.280Z,79.55
2022-10-07T19:54:03.221Z,80.21
2022-10-07T19:56:32.370Z,79.59
2022-10-07T19:59:02.377Z,79.49
2022-10-07T20:01:32.157Z,79.13
2022-10-07T20:04:03.794Z,80.33
2022-10-07T20:06:30.715Z,79.52
2022-10-07T20:08:57.212Z,79.37
2022-10-07T20:11:24.159Z,79.84
2022-10-07T20:13:51.737Z,80.86
2022-10-07T20:16:21.122Z,81.50
2022-10-07T20:18:50.131Z,81.76
2022-10-07T20:21:20.525Z,81.33
2022-10-07T20:23:48.298Z,82.34
2022-10-07T20:26:20.183Z,81.75
2022-10-07T20:28:49.300Z,81.77
2022-10-07T20:31:17.675Z,80.92
2022-10-07T20:33:46.356Z,81.36
2022-10-07T20:36:15.399Z,81.59
2022-10-07T20:39:01.632Z,81.59
2022-10-07T20:41:47.696Z,81.61
2022-10-07T20:44:16.176Z,82.19
2022-10-07T20:46:42.911Z,81.57
2022-10-07T20:49:21.835Z,81.16
2022-10-07T20:51:52.858Z,81.66
2022-10-07T20:54:19.987Z,82.01
2022-10-07T20:56:46.869Z,81.84
2022-10-07T20:59:13.294Z,82.02
2022-10-07T21:01:40.575Z,81.29
2022-10-07T21:04:07.659Z,82.19
2022-10-07T21:06:34.485Z,81.55
2022-10-07T21:09:01.273Z,81.87
2022-10-07T21:11:27.700Z,82.12
2022-10-07T21:13:57.252Z,82.32
2022-10-07T21:16:24.661Z,82.42
2022-10-07T21:18:51.129Z,82.74
2022-10-07T21:21:17.851Z,82.15
2022-10-07T21:23:45.142Z,82.50
2022-10-07T21:26:11.858Z,82.62
2022-10-07T21:28:39.377Z,83.20
2022-10-07T21:31:08.509Z,83.07
2022-10-07T21:33:37.429Z,82.77
2022-10-07T21:36:06.993Z,81.95
2022-10-07T21:38:34.431Z,82.88
2022-10-07T21:41:11.915Z,82.83
2022-10-07T21:43:39.574Z,82.89
2022-10-07T21:46:06.153Z,83.89
2022-10-07T21:48:32.580Z,83.95
2022-10-07T21:51:00.171Z,83.95
2022-10-07T21:53:27.314Z,83.72
2022-10-07T21:55:53.874Z,84.07
2022-10-07T21:58:21.362Z,84.16
2022-10-07T22:00:48.002Z,84.83
2022-10-07T22:03:14.626Z,84.85
2022-10-07T22:05:41.522Z,84.96
2022-10-07T22:08:31.427Z,85.21
2022-10-07T22:11:18.404Z,84.74
2022-10-07T22:13:49.626Z,85.31
2022-10-07T22:16:17.743Z,84.76
2022-10-07T22:18:48.922Z,85.68
2022-10-07T22:21:19.367Z,85.28
2022-10-07T22:23:50.757Z,85.92
2022-10-07T22:26:18.866Z,85.34
2022-10-07T22:28:46.759Z,85.48
2022-10-07T22:31:14.895Z,85.69
2022-10-07T22:33:42.554Z,86.25
2022-10-07T22:36:12.002Z,86.81
2022-10-07T22:38:40.852Z,86.47
2022-10-07T22:41:10.119Z,86.52
2022-10-07T22:43:37.715Z,87.13
2022-10-07T22:46:04.210Z,86.82
2022-10-07T22:48:31.250Z,86.79
2022-10-07T22:51:06.373Z,86.92
2022-10-07T22:53:34.924Z,86.24
2022-10-07T22:56:06.236Z,86.43
2022-10-07T22:58:34.078Z,85.86
2022-10-07T23:01:09.014Z,87.01
2022-10-07T23:03:38.421Z,86.49
2022-10-07T23:06:06.614Z,86.55
2022-10-07T23:08:34.520Z,86.60
2022-10-07T23:11:02.198Z,86.67
2022-10-07T23:13:31.435Z,87.04
2022-10-07T23:16:03.140Z,86.79
2022-10-07T23:18:30.467Z,86.84
2022-10-07T23:21:04.633Z,86.00
2022-10-07T23:23:36.283Z,86.66
2022-10-07T23:26:14.658Z,86.48
2022-10-07T23:28:41.742Z,86.77
2022-10-07T23:31:14.339Z,87.21
2022-10-07T23:33:41.237Z,85.73
2022-10-07T23:36:10.419Z,86.65
2022-10-07T23:38:39.003Z,88.16
2022-10-07T23:41:06.863Z,88.38
2022-10-07T23:43:33.809Z,89.48
2022-10-07T23:46:01.358Z,88.48
2022-10-07T23:48:28.024Z,88.86
2022-10-07T23:50:57.311Z,87.54
2022-10-07T23:53:23.728Z,88.72
2022-10-07T23:55:52.666Z,89.99
2022-10-07T23:58:21.402Z,89.44
